Time;durP1;ratioP1;P1;durP2;ratioP2;P2;SDS_P1;SDS_P2;PMS_P1;PMS_P2;Temp;Humidity;BMP_temperature;BMP_pressure;BME280_temperature;BME280_humidity;BME280_pressure;Samples;Min_cycle;Max_cycle;Signal;HPM_P1;HPM_P2
2021/06/25 00:00:22;;;;;;;21.90;7.60;;;;;;;;;;5053760;28;20860;-76
2021/06/25 00:03:06;;;;;;;26.07;7.27;;;17.90;1.00;;;;;;5069664;28;20192;-76
2021/06/25 00:05:32;;;;;;;10.37;6.93;;;17.90;1.00;;;;;;5070245;28;20893;-76
2021/06/25 00:08:00;;;;;;;11.07;6.60;;;17.90;1.00;;;;;;5053801;28;20411;-76
2021/06/25 00:10:26;;;;;;;11.77;6.73;;;17.90;1.00;;;;;;5055856;28;20200;-76
2021/06/25 00:13:00;;;;;;;14.80;8.07;;;17.80;1.00;;;;;;5054431;28;20401;-76
2021/06/25 00:15:26;;;;;;;16.23;8.73;;;17.80;1.00;;;;;;5071614;28;20498;-76
2021/06/25 00:18:01;;;;;;;13.63;6.57;;;17.80;1.00;;;;;;5071281;28;20853;-76
2021/06/25 00:20:42;;;;;;;10.70;7.17;;;17.80;1.00;;;;;;5071822;28;20414;-74
2021/06/25 00:23:08;;;;;;;13.83;6.90;;;17.80;1.00;;;;;;5068543;28;20452;-74
2021/06/25 00:25:36;;;;;;;15.20;7.13;;;17.90;1.00;;;;;;5053261;28;20500;-74
2021/06/25 00:28:12;;;;;;;10.73;8.03;;;17.80;1.00;;;;;;5053323;28;20173;-74
2021/06/25 00:30:38;;;;;;;17.47;8.13;;;17.80;1.00;;;;;;5069077;28;20456;-74
2021/06/25 00:33:06;;;;;;;17.23;7.50;;;17.80;1.00;;;;;;5056954;28;20918;-74
2021/06/25 00:35:37;;;;;;;13.87;7.87;;;17.80;1.00;;;;;;5073125;28;20419;-74
2021/06/25 00:38:04;;;;;;;17.57;7.27;;;17.80;1.00;;;;;;5072613;28;20749;-74
2021/06/25 00:40:31;;;;;;;16.40;8.47;;;17.80;1.00;;;;;;5057899;28;20770;-74
2021/06/25 00:43:01;;;;;;;17.20;7.77;;;17.80;1.00;;;;;;5052949;28;20424;-74
2021/06/25 00:45:27;;;;;;;18.00;7.87;;;17.80;1.00;;;;;;5052905;28;20418;-74
2021/06/25 00:47:54;;;;;;;15.53;7.60;;;17.80;1.00;;;;;;5052770;28;20903;-74
2021/06/25 00:50:27;;;;;;;18.43;8.00;;;17.80;1.00;;;;;;5053247;28;20203;-74
2021/06/25 00:52:54;;;;;;;26.67;9.30;;;17.70;1.00;;;;;;5064214;28;20410;-74
2021/06/25 00:55:43;;;;;;;14.07;8.00;;;17.80;1.00;;;;;;5073215;28;20415;-74
2021/06/25 00:58:13;;;;;;;14.00;8.90;;;17.70;1.00;;;;;;5064851;28;20418;-74
2021/06/25 01:00:43;;;;;;;10.90;7.30;;;17.70;1.00;;;;;;5073098;28;20413;-74
2021/06/25 01:03:09;;;;;;;10.17;7.43;;;17.80;1.00;;;;;;5058130;28;20425;-74
2021/06/25 01:05:35;;;;;;;10.10;7.47;;;17.80;1.00;;;;;;5052640;28;20445;-74
2021/06/25 01:08:08;;;;;;;13.50;7.70;;;17.70;1.00;;;;;;5052960;28;20461;-74
2021/06/25 01:10:38;;;;;;;27.23;9.17;;;17.70;1.00;;;;;;5051509;28;20815;-74
2021/06/25 01:13:18;;;;;;;17.20;9.50;;;17.70;1.00;;;;;;5052449;28;20411;-74
2021/06/25 01:15:54;;;;;;;17.20;8.80;;;17.60;1.00;;;;;;5052950;28;20400;-74
2021/06/25 01:18:20;;;;;;;15.90;8.90;;;17.60;1.00;;;;;;5056031;28;20418;-74
2021/06/25 01:20:49;;;;;;;11.30;8.10;;;17.70;1.00;;;;;;5059616;28;20390;-76
2021/06/25 01:23:35;;;;;;;18.93;9.40;;;17.70;1.00;;;;;;5052861;28;20181;-76
2021/06/25 01:26:07;;;;;;;14.37;8.10;;;17.80;1.00;;;;;;5054562;28;20413;-76
2021/06/25 01:28:38;;;;;;;19.03;8.43;;;17.70;1.00;;;;;;5055601;28;20461;-76
2021/06/25 01:31:05;;;;;;;14.43;7.30;;;17.80;1.00;;;;;;5065122;28;20475;-76
2021/06/25 01:33:37;;;;;;;15.70;8.90;;;17.70;1.00;;;;;;5058925;28;20411;-76
2021/06/25 01:36:04;;;;;;;21.93;9.20;;;17.80;1.00;;;;;;5057226;28;20399;-75
2021/06/25 01:38:44;;;;;;;11.87;9.00;;;17.70;1.00;;;;;;5056881;28;20401;-76
2021/06/25 01:41:12;;;;;;;16.80;8.33;;;17.80;1.00;;;;;;5056700;28;20387;-76
2021/06/25 01:43:39;;;;;;;17.37;7.13;;;17.70;1.00;;;;;;5056705;28;20447;-76
2021/06/25 01:46:11;;;;;;;10.60;8.03;;;17.70;1.00;;;;;;5056865;28;20373;-76
2021/06/25 01:48:37;;;;;;;16.10;9.00;;;17.70;1.00;;;;;;5070745;28;20852;-76
2021/06/25 01:51:13;;;;;;;14.27;8.40;;;17.70;1.00;;;;;;5076729;28;20540;-73
2021/06/25 01:53:42;;;;;;;11.37;8.60;;;17.60;1.00;;;;;;5074976;28;20180;-74
2021/06/25 01:56:08;;;;;;;19.90;9.07;;;17.70;1.00;;;;;;5055952;28;20406;-74
2021/06/25 01:58:34;;;;;;;15.00;7.50;;;17.70;1.00;;;;;;5055912;28;20787;-74
2021/06/25 02:01:14;;;;;;;15.00;8.53;;;17.80;1.00;;;;;;5056676;28;20169;-74
2021/06/25 02:03:48;;;;;;;15.10;8.70;;;17.70;1.00;;;;;;5056914;28;20402;-74
2021/06/25 02:06:15;;;;;;;17.40;8.83;;;17.80;1.00;;;;;;5056213;28;20410;-76
2021/06/25 02:08:43;;;;;;;20.77;9.57;;;17.70;1.00;;;;;;5056041;28;20374;-76
2021/06/25 02:11:24;;;;;;;17.83;8.40;;;17.70;1.00;;;;;;5055984;28;20487;-76
2021/06/25 02:14:06;;;;;;;22.83;8.80;;;17.70;1.00;;;;;;5056013;28;20409;-76
2021/06/25 02:16:32;;;;;;;16.27;10.80;;;17.60;1.00;;;;;;5055769;28;20891;-76
2021/06/25 02:19:36;;;;;;;13.53;9.00;;;17.70;1.00;;;;;;5055970;28;20369;-76
2021/06/25 02:22:02;;;;;;;21.03;9.87;;;17.70;1.00;;;;;;5057564;28;20177;-74
2021/06/25 02:24:29;;;;;;;14.37;9.87;;;17.70;1.00;;;;;;5062351;28;20424;-74
2021/06/25 02:26:55;;;;;;;22.73;10.30;;;17.60;1.00;;;;;;5075712;28;20377;-74
2021/06/25 02:29:21;;;;;;;16.53;9.87;;;17.60;1.00;;;;;;5075444;28;20914;-74
2021/06/25 02:31:46;;;;;;;19.33;10.77;;;17.60;1.00;;;;;;5055677;28;20422;-74
2021/06/25 02:34:12;;;;;;;17.57;9.20;;;;;;;;;;5065610;28;20406;-74
2021/06/25 02:36:38;;;;;;;18.57;9.27;;;;;;;;;;5072950;28;20238;-73
2021/06/25 02:39:04;;;;;;;14.83;8.90;;;17.60;1.00;;;;;;5054827;28;20768;-74
2021/06/25 02:41:31;;;;;;;19.67;10.10;;;17.60;1.00;;;;;;5060691;28;20423;-74
2021/06/25 02:44:01;;;;;;;15.67;9.27;;;17.60;1.00;;;;;;5066253;28;20400;-74
2021/06/25 02:46:27;;;;;;;16.33;8.90;;;;;;;;;;5075249;28;20460;-74
2021/06/25 02:48:54;;;;;;;17.17;9.20;;;17.60;1.00;;;;;;5073733;28;20787;-74
2021/06/25 02:51:20;;;;;;;14.30;8.70;;;;;;;;;;5066396;28;20551;-74
2021/06/25 02:53:46;;;;;;;11.70;8.53;;;;;;;;;;5070246;28;20787;-74
2021/06/25 02:56:12;;;;;;;15.33;9.20;;;;;;;;;;5073345;28;20792;-74
2021/06/25 02:58:38;;;;;;;28.40;9.93;;;17.60;1.00;;;;;;5064813;28;20385;-74
2021/06/25 03:01:04;;;;;;;15.77;9.63;;;17.70;1.00;;;;;;5054914;28;20454;-74
2021/06/25 03:03:30;;;;;;;14.80;8.37;;;17.60;1.00;;;;;;5054721;28;20239;-74
2021/06/25 03:05:56;;;;;;;17.37;9.40;;;17.60;1.00;;;;;;5065345;28;20291;-74
2021/06/25 03:08:24;;;;;;;21.33;9.47;;;17.70;1.00;;;;;;5074590;28;20484;-74
2021/06/25 03:10:50;;;;;;;13.30;8.80;;;17.60;1.00;;;;;;5059828;28;20212;-74
2021/06/25 03:13:17;;;;;;;17.40;9.87;;;17.60;1.00;;;;;;5054513;28;20378;-74
2021/06/25 03:15:49;;;;;;;16.43;8.93;;;17.60;1.00;;;;;;5054545;28;20448;-75
2021/06/25 03:18:24;;;;;;;11.93;8.50;;;17.60;1.00;;;;;;5054623;28;20846;-75
2021/06/25 03:20:50;;;;;;;22.03;8.77;;;17.60;1.00;;;;;;5058951;28;20845;-74
2021/06/25 03:23:17;;;;;;;12.80;8.67;;;;;;;;;;5068657;28;20463;-74
2021/06/25 03:25:42;;;;;;;14.10;9.20;;;17.60;1.00;;;;;;5058013;28;20444;-74
2021/06/25 03:28:08;;;;;;;13.03;9.27;;;17.60;1.00;;;;;;5069914;28;21040;-74
2021/06/25 03:30:37;;;;;;;13.00;8.40;;;17.60;1.00;;;;;;5054125;28;20251;-74
2021/06/25 03:33:07;;;;;;;28.47;9.53;;;17.60;1.00;;;;;;5054905;28;20416;-74
2021/06/25 03:35:37;;;;;;;11.70;8.33;;;17.60;1.00;;;;;;5054594;28;20387;-74
2021/06/25 03:38:05;;;;;;;13.07;8.90;;;17.60;1.00;;;;;;5054078;28;20446;-74
2021/06/25 03:40:36;;;;;;;15.80;9.47;;;17.60;1.00;;;;;;5055243;28;20418;-74
2021/06/25 03:43:04;;;;;;;16.27;8.47;;;17.60;1.00;;;;;;5053823;28;20422;-74
2021/06/25 03:48:51;;;;;;;11.80;8.43;;;;;;;;;;5053819;28;20375;-81
2021/06/25 03:52:00;;;;;;;13.37;9.07;;;17.60;1.00;;;;;;5062838;28;20436;-80
2021/06/25 03:54:26;;;;;;;16.23;8.97;;;17.60;1.00;;;;;;5059255;28;20430;-82
2021/06/25 03:57:30;;;;;;;10.73;7.67;;;17.70;1.00;;;;;;5053820;28;20382;-80
2021/06/25 04:03:17;;;;;;;20.90;10.00;;;17.70;1.00;;;;;;5061339;28;20900;-76
2021/06/25 04:05:43;;;;;;;15.90;8.87;;;;;;;;;;5073884;28;20406;-76
2021/06/25 04:08:12;;;;;;;18.00;8.80;;;17.70;1.00;;;;;;5064766;28;20235;-75
2021/06/25 04:10:42;;;;;;;18.77;9.17;;;17.70;1.00;;;;;;5053694;28;20856;-75
2021/06/25 04:14:00;;;;;;;20.23;8.30;;;17.80;1.00;;;;;;5054018;28;20399;-84
2021/06/25 04:17:18;;;;;;;15.80;7.90;;;17.80;1.00;;;;;;5052475;28;20390;-84
2021/06/25 04:26:27;;;;;;;12.30;7.57;;;17.90;1.00;;;;;;5073163;28;20410;-82
2021/06/25 04:32:16;;;;;;;14.50;8.37;;;18.00;1.00;;;;;;5052984;28;20220;-82
2021/06/25 04:38:05;;;;;;;12.83;8.00;;;18.00;1.00;;;;;;5056025;28;20456;-83
2021/06/25 04:40:33;;;;;;;14.50;8.80;;;18.10;1.00;;;;;;5052010;28;20420;-83
2021/06/25 04:43:19;;;;;;;11.30;7.10;;;18.10;1.00;;;;;;5052169;28;20810;-83
2021/06/25 04:45:45;;;;;;;17.03;7.47;;;18.20;1.00;;;;;;5059030;28;20466;-83
2021/06/25 04:48:19;;;;;;;10.30;7.20;;;18.30;1.00;;;;;;5068874;28;20945;-83
2021/06/25 04:50:55;;;;;;;14.27;7.40;;;18.30;1.00;;;;;;5052068;28;20423;-83
2021/06/25 04:53:20;;;;;;;11.77;7.17;;;18.40;1.00;;;;;;5053166;28;20442;-81
2021/06/25 04:55:46;;;;;;;13.83;6.97;;;18.50;1.00;;;;;;5060692;28;20406;-82
2021/06/25 04:58:15;;;;;;;8.60;6.60;;;18.70;1.00;;;;;;5052990;28;20174;-82
2021/06/25 05:01:06;;;;;;;19.83;7.67;;;18.70;1.00;;;;;;5051544;28;20666;-82
2021/06/25 05:03:43;;;;;;;17.27;8.20;;;18.80;1.00;;;;;;5058058;28;20376;-82
2021/06/25 05:06:08;;;;;;;12.97;8.70;;;18.80;1.00;;;;;;5059194;28;20428;-82
2021/06/25 05:09:06;;;;;;;26.13;12.00;;;18.80;1.00;;;;;;5059754;28;20900;-82
2021/06/25 05:11:32;;;;;;;28.00;15.30;;;18.80;1.00;;;;;;5065826;28;20598;-83
2021/06/25 05:14:00;;;;;;;31.60;17.20;;;18.70;1.00;;;;;;5076998;28;20551;-85
2021/06/25 05:16:26;;;;;;;32.17;18.57;;;18.70;1.00;;;;;;5073564;28;20181;-85
2021/06/25 05:18:52;;;;;;;32.53;20.00;;;18.50;1.00;;;;;;5059948;28;20442;-85
2021/06/25 05:24:39;;;;;;;40.73;21.40;;;18.50;1.00;;;;;;5072361;28;20226;-85
2021/06/25 05:30:27;;;;;;;38.50;21.60;;;;;;;;;;5079853;28;20349;-85
2021/06/25 05:39:43;;;;;;;48.23;23.80;;;;;;;;;;5059484;28;20485;-84
2021/06/25 05:42:09;;;;;;;41.90;22.83;;;18.90;1.00;;;;;;5065050;28;20428;-83
2021/06/25 05:44:35;;;;;;;43.50;21.97;;;19.00;1.00;;;;;;5070656;28;20443;-83
2021/06/25 05:47:02;;;;;;;42.47;22.00;;;19.10;1.00;;;;;;5071440;28;20375;-84
2021/06/25 05:49:28;;;;;;;38.40;22.43;;;;;;;;;;5068790;28;20776;-84
2021/06/25 05:51:54;;;;;;;42.53;22.87;;;;;;;;;;5057548;28;20391;-83
2021/06/25 05:54:20;;;;;;;40.00;21.40;;;;;;;;;;5058304;28;20445;-85
2021/06/25 05:56:46;;;;;;;38.87;21.97;;;;;;;;;;5057883;28;20738;-85
2021/06/25 05:59:12;;;;;;;36.97;22.43;;;;;;;;;;5058963;28;20843;-85
2021/06/25 06:01:41;;;;;;;40.03;22.60;;;19.70;1.00;;;;;;5057955;28;20832;-85
2021/06/25 06:04:07;;;;;;;34.13;21.43;;;;;;;;;;5057215;28;20460;-85
2021/06/25 06:06:33;;;;;;;35.63;20.43;;;19.80;1.00;;;;;;5067074;28;20479;-85
2021/06/25 06:09:02;;;;;;;37.40;23.33;;;19.80;1.00;;;;;;5057745;28;20879;-84
2021/06/25 06:11:29;;;;;;;43.60;22.37;;;;;;;;;;5058650;28;20201;-84
2021/06/25 06:13:54;;;;;;;45.27;21.80;;;19.90;1.00;;;;;;5054694;28;20377;-75
2021/06/25 06:16:20;;;;;;;42.67;22.77;;;20.10;1.00;;;;;;5055026;28;20417;-75
2021/06/25 06:18:47;;;;;;;40.20;21.83;;;20.20;99.90;;;;;;5055270;28;20179;-75
2021/06/25 06:21:14;;;;;;;39.97;22.10;;;20.40;99.90;;;;;;5054941;28;20407;-75
2021/06/25 06:32:02;;;;;;;39.33;22.27;;;20.50;99.90;;;;;;5055005;28;20401;-74
2021/06/25 06:34:32;;;;;;;34.33;22.40;;;20.60;99.90;;;;;;5054701;28;20390;-74
2021/06/25 06:36:58;;;;;;;37.90;22.47;;;20.70;99.90;;;;;;5054474;28;20445;-74
2021/06/25 06:39:24;;;;;;;34.97;20.50;;;20.80;99.90;;;;;;5059266;28;20369;-76
2021/06/25 06:41:50;;;;;;;38.87;22.17;;;21.00;99.90;;;;;;5074507;28;20250;-75
2021/06/25 06:44:15;;;;;;;34.40;19.03;;;21.30;99.90;;;;;;5069846;28;20202;-75
2021/06/25 06:46:41;;;;;;;28.83;18.90;;;21.40;99.90;;;;;;5074443;28;20164;-75
2021/06/25 06:49:07;;;;;;;29.53;19.47;;;21.70;99.90;;;;;;5074502;28;20545;-75
2021/06/25 06:51:33;;;;;;;29.73;18.83;;;;;;;;;;5074500;28;20543;-76
2021/06/25 06:54:00;;;;;;;36.10;18.83;;;21.90;99.90;;;;;;5074868;28;20165;-75
2021/06/25 06:56:27;;;;;;;29.80;17.47;;;21.90;99.90;;;;;;5074243;28;20370;-75
2021/06/25 06:58:53;;;;;;;32.87;18.07;;;21.90;99.90;;;;;;5074295;28;20445;-75
2021/06/25 07:01:20;;;;;;;25.70;17.23;;;21.90;99.90;;;;;;5074175;28;20886;-75
2021/06/25 07:03:47;;;;;;;38.47;17.20;;;22.00;99.90;;;;;;5074189;28;20399;-75
2021/06/25 07:06:13;;;;;;;31.50;18.03;;;22.00;99.90;;;;;;5063358;28;20449;-75
2021/06/25 07:08:39;;;;;;;24.53;15.17;;;22.00;99.90;;;;;;5065763;28;20908;-74
2021/06/25 07:11:05;;;;;;;25.30;16.33;;;22.20;99.90;;;;;;5070111;28;20467;-74
2021/06/25 07:13:31;;;;;;;26.60;16.07;;;22.30;99.90;;;;;;5062723;28;20667;-74
2021/06/25 07:15:57;;;;;;;22.83;14.60;;;22.40;99.90;;;;;;5053542;28;20163;-74
2021/06/25 07:18:23;;;;;;;22.70;14.90;;;;;;;;;;5053537;28;20549;-74
2021/06/25 07:20:49;;;;;;;23.43;14.50;;;22.30;99.90;;;;;;5053716;28;20571;-74
2021/06/25 07:23:15;;;;;;;24.43;15.20;;;22.50;99.90;;;;;;5053978;28;20864;-75
2021/06/25 07:25:40;;;;;;;20.03;12.97;;;22.60;99.90;;;;;;5051251;28;20750;-75
2021/06/25 07:28:07;;;;;;;22.77;14.63;;;22.60;99.90;;;;;;5052248;28;20186;-75
2021/06/25 07:30:32;;;;;;;23.07;14.80;;;22.60;99.90;;;;;;5064837;28;20252;-75
2021/06/25 07:32:58;;;;;;;19.07;12.57;;;22.70;99.90;;;;;;5072904;28;20425;-75
2021/06/25 07:35:24;;;;;;;23.23;14.70;;;22.50;99.90;;;;;;5057682;28;20438;-75
2021/06/25 07:37:50;;;;;;;20.77;14.00;;;22.40;99.90;;;;;;5053185;28;20393;-75
2021/06/25 07:40:16;;;;;;;34.93;16.53;;;22.30;99.90;;;;;;5053140;28;20810;-74
2021/06/25 07:42:42;;;;;;;30.47;17.40;;;22.10;99.90;;;;;;5063649;28;20190;-74
2021/06/25 07:45:09;;;;;;;27.07;17.63;;;22.00;99.90;;;;;;5053009;28;20479;-74
2021/06/25 07:47:37;;;;;;;30.97;18.57;;;21.90;99.90;;;;;;5064081;28;20416;-74
2021/06/25 07:50:09;;;;;;;34.43;18.13;;;21.80;99.90;;;;;;5063310;28;20620;-74
2021/06/25 07:52:35;;;;;;;31.40;18.93;;;21.80;99.90;;;;;;5052773;28;20439;-74
2021/06/25 07:55:07;;;;;;;28.70;18.20;;;21.80;99.90;;;;;;5053716;28;20474;-75
2021/06/25 07:57:33;;;;;;;26.03;16.97;;;21.80;99.90;;;;;;5052885;28;20396;-75
2021/06/25 07:59:59;;;;;;;33.60;19.10;;;21.70;99.90;;;;;;5052423;28;20435;-75
2021/06/25 08:02:24;;;;;;;34.97;18.30;;;21.80;99.90;;;;;;5052661;28;20458;-75
2021/06/25 08:04:50;;;;;;;33.00;18.47;;;21.70;99.90;;;;;;5069387;28;20212;-75
2021/06/25 08:07:17;;;;;;;29.13;18.33;;;21.60;99.90;;;;;;5054560;28;20199;-76
2021/06/25 08:09:43;;;;;;;28.97;18.10;;;21.70;99.90;;;;;;5054567;28;20189;-75
2021/06/25 08:12:12;;;;;;;26.63;17.33;;;21.80;99.90;;;;;;5061952;28;20396;-75
2021/06/25 08:14:38;;;;;;;32.73;18.00;;;21.70;99.90;;;;;;5071980;28;21638;-75
2021/06/25 08:17:05;;;;;;;33.37;17.40;;;21.80;99.90;;;;;;5071542;28;20407;-75
2021/06/25 08:19:31;;;;;;;32.03;17.30;;;22.00;99.90;;;;;;5070089;28;20429;-75
2021/06/25 08:21:56;;;;;;;29.40;16.40;;;22.10;99.90;;;;;;5072545;28;20395;-75
2021/06/25 08:24:22;;;;;;;29.60;18.10;;;22.10;99.90;;;;;;5055017;28;20180;-74
2021/06/25 08:26:48;;;;;;;37.60;19.13;;;22.40;99.90;;;;;;5052027;28;20161;-74
2021/06/25 08:29:14;;;;;;;28.10;18.50;;;22.40;99.90;;;;;;5052190;28;20392;-74
2021/06/25 08:31:40;;;;;;;28.33;17.33;;;22.60;99.90;;;;;;5052063;28;20462;-74
2021/06/25 08:34:10;;;;;;;27.83;16.33;;;;;;;;;;5051699;28;20190;-74
2021/06/25 08:36:36;;;;;;;24.70;16.33;;;22.60;99.90;;;;;;5051934;28;20205;-74
2021/06/25 08:39:02;;;;;;;25.93;15.67;;;22.70;99.90;;;;;;5052314;28;20372;-73
2021/06/25 08:41:28;;;;;;;28.57;16.83;;;22.70;99.90;;;;;;5052093;28;20878;-73
2021/06/25 08:43:54;;;;;;;26.07;16.50;;;22.80;99.90;;;;;;5051485;28;20479;-73
2021/06/25 08:46:20;;;;;;;36.20;18.37;;;23.10;99.90;;;;;;5053596;28;20180;-73
2021/06/25 08:48:48;;;;;;;24.13;15.50;;;23.10;99.90;;;;;;5069618;28;20949;-73
2021/06/25 08:51:14;;;;;;;30.90;15.63;;;24.70;99.90;;;;;;5065430;28;20500;-73
2021/06/25 08:53:39;;;;;;;26.50;15.97;;;23.80;99.90;;;;;;5071714;28;20429;-73
2021/06/25 08:56:05;;;;;;;25.43;15.20;;;23.80;99.90;;;;;;5072497;28;20620;-75
2021/06/25 08:58:31;;;;;;;28.93;14.70;;;24.50;99.90;;;;;;5072584;28;20508;-75
2021/06/25 09:00:57;;;;;;;25.70;14.07;;;24.50;99.90;;;;;;5069708;28;20581;-76
2021/06/25 09:03:26;;;;;;;28.63;13.50;;;24.80;99.90;;;;;;5071137;28;20194;-75
2021/06/25 09:05:53;;;;;;;26.20;15.07;;;24.90;99.90;;;;;;5063101;28;20469;-75
2021/06/25 09:08:29;;;;;;;24.73;14.47;;;25.30;99.90;;;;;;5051161;28;20416;-75
2021/06/25 09:10:59;;;;;;;42.87;18.13;;;25.50;99.90;;;;;;5054884;28;20516;-76
2021/06/25 09:13:36;;;;;;;28.10;18.23;;;25.60;99.90;;;;;;5062452;28;20430;-75
2021/06/25 09:16:21;;;;;;;31.33;15.90;;;25.30;99.90;;;;;;5071894;28;20935;-75
2021/06/25 09:18:59;;;;;;;26.37;16.40;;;25.30;99.90;;;;;;5071457;28;20392;-75
2021/06/25 09:21:25;;;;;;;27.60;16.07;;;25.40;99.90;;;;;;5069565;28;20480;-75
2021/06/25 09:23:53;;;;;;;26.07;16.87;;;25.40;99.90;;;;;;5069239;28;20419;-75
2021/06/25 09:26:22;;;;;;;27.07;16.00;;;25.40;99.90;;;;;;5070216;28;20405;-73
2021/06/25 09:28:50;;;;;;;30.10;19.00;;;25.40;99.90;;;;;;5070770;28;20432;-73
2021/06/25 09:31:25;;;;;;;25.47;16.60;;;25.20;99.90;;;;;;5071489;28;20423;-73
2021/06/25 09:33:56;;;;;;;30.53;15.57;;;25.40;99.90;;;;;;5071778;28;20485;-73
2021/06/25 09:36:33;;;;;;;33.73;19.97;;;25.40;99.90;;;;;;5069043;28;20415;-73
2021/06/25 09:39:07;;;;;;;40.67;21.60;;;25.40;99.90;;;;;;5071640;28;20772;-74
2021/06/25 09:41:33;;;;;;;37.00;21.87;;;25.30;99.90;;;;;;5072069;28;20917;-75
2021/06/25 09:44:05;;;;;;;39.87;22.07;;;24.90;99.90;;;;;;5056634;28;20931;-75
2021/06/25 09:46:42;;;;;;;36.87;20.90;;;24.90;99.90;;;;;;5051164;28;20608;-75
2021/06/25 09:49:10;;;;;;;32.03;20.70;;;24.60;99.90;;;;;;5055871;28;20415;-75
2021/06/25 09:51:38;;;;;;;38.50;23.53;;;24.60;99.90;;;;;;5055480;28;20444;-75
2021/06/25 09:54:13;;;;;;;33.10;20.23;;;24.30;99.90;;;;;;5055775;28;20423;-75
2021/06/25 09:56:54;;;;;;;32.23;20.37;;;24.00;99.90;;;;;;5055059;28;20798;-75
2021/06/25 09:59:30;;;;;;;32.87;20.30;;;24.10;99.90;;;;;;5055164;28;20396;-75
2021/06/25 10:02:22;;;;;;;33.40;20.43;;;23.90;99.90;;;;;;5055588;28;20392;-75
2021/06/25 10:05:14;;;;;;;32.07;17.47;;;23.90;99.90;;;;;;5073615;28;20510;-75
2021/06/25 10:07:40;;;;;;;30.00;18.93;;;23.70;99.90;;;;;;5055492;28;20968;-76
2021/06/25 10:10:11;;;;;;;27.10;17.67;;;23.80;99.90;;;;;;5064767;28;20457;-74
2021/06/25 10:12:43;;;;;;;28.20;15.77;;;23.90;99.90;;;;;;5074239;28;20871;-74
2021/06/25 10:15:10;;;;;;;23.70;15.23;;;23.90;99.90;;;;;;5069212;28;20414;-74
2021/06/25 10:17:36;;;;;;;27.03;16.13;;;23.90;99.90;;;;;;5054897;28;20486;-74
2021/06/25 10:20:10;;;;;;;28.83;17.37;;;24.00;99.90;;;;;;5062394;28;20435;-74
2021/06/25 10:22:37;;;;;;;31.20;17.03;;;23.90;99.90;;;;;;5074695;28;20533;-74
2021/06/25 10:25:05;;;;;;;41.10;17.40;;;23.80;99.90;;;;;;5072075;28;20773;-75
2021/06/25 10:27:32;;;;;;;25.77;17.00;;;23.90;99.90;;;;;;5074980;28;20413;-75
2021/06/25 10:29:58;;;;;;;36.83;19.50;;;23.80;99.90;;;;;;5068243;28;20564;-76
2021/06/25 10:32:24;;;;;;;28.40;17.33;;;23.80;99.90;;;;;;5059525;28;20437;-75
2021/06/25 10:34:50;;;;;;;32.30;19.30;;;23.80;99.90;;;;;;5053224;28;20435;-75
2021/06/25 10:37:23;;;;;;;29.03;19.60;;;23.70;99.90;;;;;;5054987;28;20226;-75
2021/06/25 10:39:50;;;;;;;30.07;18.77;;;23.60;99.90;;;;;;5054387;28;20397;-75
2021/06/25 10:42:16;;;;;;;28.70;17.77;;;;;;;;;;5059533;28;20417;-73
2021/06/25 10:44:43;;;;;;;34.23;19.63;;;23.60;99.90;;;;;;5054057;28;20916;-73
2021/06/25 10:47:21;;;;;;;46.37;21.60;;;23.50;99.90;;;;;;5053799;28;20393;-78
2021/06/25 10:49:59;;;;;;;31.53;18.20;;;23.50;99.90;;;;;;5065587;28;20488;-78
2021/06/25 10:53:20;;;;;;;30.67;17.60;;;23.50;99.90;;;;;;5054957;28;20482;-78
2021/06/25 10:59:19;;;;;;;32.37;19.20;;;23.50;99.90;;;;;;5012487;28;20397;-78
2021/06/25 11:01:56;;;;;;;28.93;17.47;;;23.80;99.90;;;;;;5012937;28;20889;-78
2021/06/25 11:04:44;;;;;;;28.03;16.30;;;24.00;99.90;;;;;;5012201;28;20441;-79
2021/06/25 11:07:39;;;;;;;26.57;17.03;;;24.20;99.90;;;;;;5028626;28;20448;-79
2021/06/25 11:10:48;;;;;;;26.17;16.53;;;24.20;99.90;;;;;;5031565;28;20546;-79
2021/06/25 11:13:35;;;;;;;33.70;18.27;;;24.30;99.90;;;;;;4973019;28;20424;-79
2021/06/25 11:16:19;;;;;;;29.50;15.80;;;24.30;99.90;;;;;;4960247;28;20412;-78
2021/06/25 11:18:45;;;;;;;27.83;17.03;;;24.50;99.90;;;;;;4963457;28;20450;-78
2021/06/25 11:21:11;;;;;;;29.47;17.03;;;24.60;99.90;;;;;;4967455;28;20525;-78
2021/06/25 11:23:43;;;;;;;31.50;17.90;;;24.70;99.90;;;;;;4959605;28;20218;-79
2021/06/25 11:26:14;;;;;;;27.70;16.93;;;24.70;99.90;;;;;;4953848;29;20165;-76
2021/06/25 11:28:47;;;;;;;32.17;18.67;;;24.60;99.90;;;;;;4958622;28;20463;-75
2021/06/25 11:31:13;;;;;;;30.93;18.07;;;24.60;99.90;;;;;;5010522;28;20901;-78
2021/06/25 11:33:38;;;;;;;28.93;16.87;;;24.90;99.90;;;;;;4992904;28;20436;-78
2021/06/25 11:36:22;;;;;;;23.60;14.10;;;25.10;99.90;;;;;;5001010;28;20445;-78
2021/06/25 11:38:59;;;;;;;21.97;14.70;;;25.20;99.90;;;;;;5002902;28;20169;-77
2021/06/25 11:41:36;;;;;;;25.37;15.90;;;;;;;;;;4991825;28;20447;-78
2021/06/25 11:47:29;;;;;;;26.20;16.20;;;25.60;99.90;;;;;;4999950;28;20433;-77
2021/06/25 11:50:02;;;;;;;28.70;17.60;;;25.80;99.90;;;;;;5059020;28;20462;-77
2021/06/25 11:52:32;;;;;;;30.30;17.90;;;25.80;99.90;;;;;;5071535;28;20446;-78
2021/06/25 11:55:04;;;;;;;29.10;18.57;;;;;;;;;;5056350;28;20438;-77
2021/06/25 11:57:32;;;;;;;32.73;17.33;;;26.00;99.90;;;;;;5070712;28;20422;-78
2021/06/25 12:00:12;;;;;;;33.23;20.73;;;26.10;99.90;;;;;;5073074;28;20395;-77
2021/06/25 12:02:56;;;;;;;27.40;16.90;;;26.30;99.90;;;;;;5072807;28;20751;-77
2021/06/25 12:05:29;;;;;;;24.37;16.27;;;26.40;99.90;;;;;;5068905;28;20426;-78
2021/06/25 12:08:14;;;;;;;27.53;15.80;;;26.40;99.90;;;;;;5052849;28;20498;-78
2021/06/25 12:10:44;;;;;;;24.67;15.70;;;26.50;99.90;;;;;;5052748;28;20475;-77
2021/06/25 12:13:10;;;;;;;24.57;15.47;;;26.50;99.90;;;;;;5052366;28;20393;-80
2021/06/25 12:15:49;;;;;;;25.90;13.30;;;26.50;99.90;;;;;;5053325;28;20400;-80
2021/06/25 12:18:30;;;;;;;24.00;14.90;;;26.60;99.90;;;;;;5051625;28;20428;-79
2021/06/25 12:21:07;;;;;;;23.60;14.60;;;26.80;99.90;;;;;;5052507;28;20903;-79
2021/06/25 12:23:33;;;;;;;20.27;12.77;;;26.50;99.90;;;;;;5052609;28;20907;-79
2021/06/25 12:26:08;;;;;;;19.40;13.03;;;26.60;99.90;;;;;;5052615;28;20913;-79
2021/06/25 12:28:35;;;;;;;25.80;12.53;;;26.80;99.90;;;;;;5072527;28;20162;-75
2021/06/25 12:31:03;;;;;;;25.07;12.93;;;26.90;99.90;;;;;;5072274;28;20448;-75
2021/06/25 12:34:03;;;;;;;18.60;12.40;;;27.00;99.90;;;;;;5071529;28;20435;-75
2021/06/25 12:36:28;;;;;;;19.77;13.23;;;27.10;99.90;;;;;;5060255;28;20780;-75
2021/06/25 12:39:04;;;;;;;17.73;11.87;;;27.30;99.90;;;;;;5051962;28;20473;-75
2021/06/25 12:41:29;;;;;;;16.20;10.60;;;27.50;99.90;;;;;;5072334;28;20159;-76
2021/06/25 12:43:56;;;;;;;13.60;9.23;;;27.50;99.90;;;;;;5058702;28;20433;-75
2021/06/25 12:46:23;;;;;;;25.33;11.50;;;28.00;99.90;;;;;;5071861;28;20624;-75
2021/06/25 12:48:59;;;;;;;16.10;10.30;;;27.60;99.90;;;;;;5055924;28;20414;-75
2021/06/25 12:51:29;;;;;;;19.07;10.50;;;27.60;99.90;;;;;;5052412;28;20454;-75
2021/06/25 12:53:58;;;;;;;12.83;9.50;;;27.30;99.90;;;;;;5051985;28;20425;-75
2021/06/25 12:56:36;;;;;;;15.00;10.40;;;27.00;99.90;;;;;;5051869;28;20406;-75
2021/06/25 12:59:08;;;;;;;21.90;11.60;;;26.80;99.90;;;;;;5052761;28;20391;-76
2021/06/25 13:01:38;;;;;;;15.20;10.27;;;26.80;99.90;;;;;;5052237;28;20438;-76
2021/06/25 13:04:18;;;;;;;22.60;11.50;;;28.80;99.90;;;;;;5051393;28;20483;-75
2021/06/25 13:06:47;;;;;;;14.00;10.23;;;26.60;99.90;;;;;;5063937;28;20989;-76
2021/06/25 13:09:20;;;;;;;17.53;11.50;;;26.70;99.90;;;;;;5071426;28;20399;-75
2021/06/25 13:11:47;;;;;;;15.27;10.63;;;26.70;99.90;;;;;;5071603;28;20810;-75
2021/06/25 13:14:30;;;;;;;19.10;11.40;;;26.90;99.90;;;;;;5072258;28;20875;-76
2021/06/25 13:17:01;;;;;;;19.30;10.63;;;27.30;99.90;;;;;;5071270;28;20397;-75
2021/06/25 13:19:34;;;;;;;16.60;11.00;;;27.30;99.90;;;;;;5051636;28;20482;-76
2021/06/25 13:22:32;;;;;;;19.00;11.30;;;27.30;99.90;;;;;;5051831;28;20418;-75
2021/06/25 13:25:36;;;;;;;17.67;11.57;;;26.90;99.90;;;;;;5054889;28;20397;-76
2021/06/25 13:28:02;;;;;;;21.80;11.40;;;26.90;99.90;;;;;;5056400;28;20488;-78
2021/06/25 13:30:29;;;;;;;13.63;10.20;;;27.10;99.90;;;;;;5055589;28;20542;-79
2021/06/25 13:33:14;;;;;;;15.67;11.20;;;27.00;99.90;;;;;;5055763;28;20669;-79
2021/06/25 13:35:45;;;;;;;33.77;10.83;;;26.70;99.90;;;;;;5054279;28;20506;-79
2021/06/25 13:38:26;;;;;;;15.00;9.87;;;26.50;99.90;;;;;;5055327;28;20406;-79
2021/06/25 13:40:52;;;;;;;21.43;12.63;;;26.10;99.90;;;;;;5055481;28;20541;-78
2021/06/25 13:43:21;;;;;;;21.97;11.60;;;25.90;99.90;;;;;;5071267;28;20529;-75
2021/06/25 13:45:49;;;;;;;22.03;11.03;;;25.80;99.90;;;;;;5075543;28;20535;-75
2021/06/25 13:48:24;;;;;;;17.37;11.67;;;25.80;99.90;;;;;;5062035;28;20566;-76
2021/06/25 13:50:51;;;;;;;21.83;11.70;;;;;;;;;;5055178;28;20491;-76